Time;durP1;ratioP1;P1;durP2;ratioP2;P2;SDS_P1;SDS_P2;PMS_P1;PMS_P2;Temp;Humidity;BMP_temperature;BMP_pressure;BME280_temperature;BME280_humidity;BME280_pressure;Samples;Min_cycle;Max_cycle;Signal;HPM_P1;HPM_P2
2023/03/28 04:32:17;;;;;;;1.40;1.15;;;9.20;58.20;;;;;;5098352;23;20113;-73
2023/03/28 04:34:44;;;;;;;1.30;1.10;;;9.10;58.20;;;;;;5015564;28;20026;-73
2023/03/28 04:37:10;;;;;;;2.50;1.48;;;9.20;58.30;;;;;;5000087;28;20120;-76
2023/03/28 04:39:36;;;;;;;1.77;1.20;;;9.20;58.40;;;;;;4986126;28;20058;-74
2023/03/28 04:42:04;;;;;;;3.25;1.58;;;9.10;58.90;;;;;;5009212;28;20041;-74
2023/03/28 04:44:30;;;;;;;1.38;1.27;;;9.00;58.90;;;;;;5017583;28;20065;-74
2023/03/28 04:46:57;;;;;;;4.20;1.40;;;8.90;59.20;;;;;;5000049;28;20030;-72
2023/03/28 04:49:23;;;;;;;5.28;1.42;;;9.00;59.20;;;;;;4997491;28;20026;-78
2023/03/28 04:51:51;;;;;;;2.30;1.17;;;9.00;59.10;;;;;;4984887;28;20030;-77
2023/03/28 04:54:17;;;;;;;1.30;1.10;;;9.20;59.20;;;;;;4999410;28;20029;-78
2023/03/28 04:56:44;;;;;;;4.03;1.25;;;9.20;59.10;;;;;;5014222;28;20034;-77
2023/03/28 04:59:14;;;;;;;4.32;1.50;;;9.30;58.50;;;;;;4980132;28;20026;-81
2023/03/28 05:01:40;;;;;;;2.33;1.48;;;9.20;58.80;;;;;;4996820;28;20500;-78
2023/03/28 05:04:06;;;;;;;3.33;1.90;;;9.20;58.90;;;;;;5009787;28;20037;-77
2023/03/28 05:06:32;;;;;;;2.40;1.48;;;9.10;58.90;;;;;;4997423;28;20026;-77
2023/03/28 05:08:58;;;;;;;3.08;1.20;;;8.80;59.30;;;;;;5002710;28;20030;-83
2023/03/28 05:11:24;;;;;;;1.55;1.10;;;8.70;60.10;;;;;;5006249;28;20037;-81
2023/03/28 05:13:50;;;;;;;1.98;0.93;;;8.60;60.60;;;;;;4994425;28;20026;-78
2023/03/28 05:16:16;;;;;;;2.85;1.35;;;8.70;60.40;;;;;;4989831;28;20564;-79
2023/03/28 05:18:41;;;;;;;2.28;1.48;;;8.80;60.60;;;;;;5002490;28;20061;-77
2023/03/28 05:21:07;;;;;;;5.97;1.38;;;8.80;60.40;;;;;;5004591;28;20120;-78
2023/03/28 05:23:32;;;;;;;1.58;1.00;;;8.80;60.30;;;;;;4999143;28;20033;-78
2023/03/28 05:25:58;;;;;;;2.60;1.30;;;8.70;61.00;;;;;;5001514;28;20026;-78
2023/03/28 05:28:24;;;;;;;2.28;1.20;;;8.80;60.70;;;;;;4996697;28;20516;-77
2023/03/28 05:30:50;;;;;;;1.52;1.10;;;8.90;60.70;;;;;;4997808;28;20126;-78
2023/03/28 05:33:16;;;;;;;2.65;1.45;;;8.80;60.60;;;;;;5006687;28;20053;-78
2023/03/28 05:35:42;;;;;;;1.48;1.05;;;8.80;61.30;;;;;;5009893;28;20038;-78
2023/03/28 05:38:08;;;;;;;6.18;1.75;;;8.90;60.90;;;;;;5015521;28;20480;-78
2023/03/28 05:40:35;;;;;;;2.53;1.70;;;9.10;60.60;;;;;;4997165;28;20104;-78
2023/03/28 05:43:01;;;;;;;3.67;0.93;;;9.10;60.20;;;;;;5003533;28;20030;-78
2023/03/28 05:45:26;;;;;;;1.55;0.80;;;9.10;59.60;;;;;;4982167;28;20042;-79
2023/03/28 05:47:54;;;;;;;2.22;1.40;;;9.10;58.80;;;;;;5001731;28;20074;-81
2023/03/28 05:50:21;;;;;;;4.90;1.58;;;9.00;59.80;;;;;;5006252;28;20022;-80
2023/03/28 05:52:46;;;;;;;1.75;1.52;;;9.00;59.40;;;;;;5004159;28;20030;-80
2023/03/28 05:55:12;;;;;;;1.30;0.80;;;9.10;58.60;;;;;;5006960;28;20025;-80
2023/03/28 05:57:38;;;;;;;7.68;1.63;;;9.00;58.90;;;;;;5004207;28;20018;-81
2023/03/28 06:00:13;;;;;;;1.35;1.25;;;8.90;59.00;;;;;;5004537;28;20444;-81
2023/03/28 06:02:39;;;;;;;7.25;1.40;;;9.00;58.60;;;;;;4984478;28;20033;-80
2023/03/28 06:05:06;;;;;;;1.52;1.00;;;9.00;58.80;;;;;;5004984;28;20030;-81
2023/03/28 06:07:32;;;;;;;3.85;1.20;;;9.10;58.90;;;;;;5006495;28;20018;-80
2023/03/28 06:10:00;;;;;;;1.35;1.25;;;9.00;59.00;;;;;;5004166;28;20046;-80
2023/03/28 06:12:26;;;;;;;5.40;1.75;;;9.10;58.90;;;;;;4988131;28;20034;-79
2023/03/28 06:14:52;;;;;;;1.10;1.00;;;9.00;59.10;;;;;;4986214;28;20030;-83
2023/03/28 06:17:17;;;;;;;1.38;1.13;;;9.10;59.10;;;;;;5003125;28;20398;-80
2023/03/28 06:19:43;;;;;;;6.28;1.30;;;9.00;59.10;;;;;;5000521;28;20030;-82
2023/03/28 06:22:08;;;;;;;4.65;1.60;;;9.00;59.40;;;;;;4995631;28;20038;-76
2023/03/28 06:24:34;;;;;;;2.10;1.40;;;9.00;59.40;;;;;;5002566;28;20022;-80
2023/03/28 06:27:00;;;;;;;1.13;0.80;;;8.90;59.40;;;;;;4986381;28;20046;-79
2023/03/28 06:29:25;;;;;;;1.38;0.95;;;8.80;60.00;;;;;;5003572;28;20030;-80
2023/03/28 06:31:51;;;;;;;3.97;1.70;;;9.00;59.50;;;;;;5004433;28;20049;-80
2023/03/28 06:34:17;;;;;;;2.75;1.58;;;9.00;59.70;;;;;;4988171;28;20045;-80
2023/03/28 06:36:43;;;;;;;1.23;1.10;;;9.00;59.50;;;;;;4986270;28;20022;-80
2023/03/28 06:39:09;;;;;;;1.65;1.30;;;8.90;59.20;;;;;;5004556;28;20497;-79
2023/03/28 06:41:35;;;;;;;2.03;1.40;;;8.90;60.00;;;;;;5011719;28;20037;-80
2023/03/28 06:44:01;;;;;;;4.28;1.20;;;8.90;60.20;;;;;;5000878;28;20035;-80
2023/03/28 06:46:27;;;;;;;1.42;1.17;;;8.90;60.10;;;;;;5003357;28;20030;-80
2023/03/28 06:48:52;;;;;;;2.20;1.38;;;8.90;60.10;;;;;;4990821;28;20081;-80
2023/03/28 06:51:18;;;;;;;3.35;1.30;;;8.80;60.60;;;;;;4980860;28;20018;-79
2023/03/28 06:53:44;;;;;;;1.08;0.98;;;8.70;60.60;;;;;;5011889;28;20030;-79
2023/03/28 06:56:11;;;;;;;1.30;0.98;;;8.80;60.30;;;;;;5002781;28;20472;-80
2023/03/28 06:58:37;;;;;;;1.17;1.08;;;8.90;60.20;;;;;;5004065;28;20743;-79
2023/03/28 07:01:04;;;;;;;2.95;1.48;;;9.00;60.70;;;;;;5018766;28;20021;-80
2023/03/28 07:03:29;;;;;;;2.47;2.17;;;9.10;60.60;;;;;;5011766;28;20034;-80
2023/03/28 07:05:55;;;;;;;2.42;1.30;;;9.10;60.40;;;;;;4982452;28;20026;-79
2023/03/28 07:08:21;;;;;;;2.15;1.33;;;9.20;60.20;;;;;;5008924;28;20045;-78
2023/03/28 07:10:47;;;;;;;5.00;1.48;;;9.00;60.70;;;;;;5015130;28;20037;-78
2023/03/28 07:13:13;;;;;;;1.42;1.33;;;9.10;60.60;;;;;;5003477;28;20034;-78
2023/03/28 07:15:39;;;;;;;5.60;1.67;;;9.00;60.20;;;;;;4998943;28;20030;-78
2023/03/28 07:18:05;;;;;;;2.50;1.45;;;9.00;60.30;;;;;;5001429;28;20102;-78
2023/03/28 07:20:31;;;;;;;2.80;1.52;;;8.90;60.10;;;;;;4998829;28;20080;-78
2023/03/28 07:22:57;;;;;;;3.60;1.45;;;9.20;60.10;;;;;;4998847;28;20031;-78
2023/03/28 07:25:23;;;;;;;2.60;1.50;;;9.10;59.60;;;;;;4998965;28;20022;-78
2023/03/28 07:27:50;;;;;;;2.25;1.38;;;9.20;60.00;;;;;;4999395;28;20023;-78
2023/03/28 07:30:16;;;;;;;3.13;1.88;;;9.10;59.70;;;;;;4999283;28;20117;-77
2023/03/28 07:32:42;;;;;;;2.10;1.20;;;9.10;60.20;;;;;;5004378;28;20084;-78
2023/03/28 07:35:08;;;;;;;1.92;1.50;;;9.10;60.20;;;;;;5018980;28;20022;-78
2023/03/28 07:37:34;;;;;;;4.28;1.92;;;9.30;60.10;;;;;;5001503;28;20030;-78
2023/03/28 07:39:59;;;;;;;1.60;1.30;;;9.40;59.20;;;;;;5002213;28;20029;-78
2023/03/28 07:42:28;;;;;;;2.30;1.33;;;9.70;59.10;;;;;;5018731;28;20040;-78
2023/03/28 07:44:54;;;;;;;2.00;1.58;;;9.80;58.10;;;;;;5018720;28;20025;-78
2023/03/28 07:47:20;;;;;;;6.40;2.45;;;9.90;58.90;;;;;;5012345;28;20034;-78
2023/03/28 07:49:46;;;;;;;4.95;1.50;;;10.20;56.80;;;;;;4981767;28;20117;-78
2023/03/28 07:52:12;;;;;;;2.47;1.25;;;10.70;55.90;;;;;;4998995;28;20425;-78
2023/03/28 07:54:38;;;;;;;2.03;1.10;;;10.70;55.00;;;;;;5010218;28;20072;-78
2023/03/28 07:57:04;;;;;;;1.58;0.98;;;11.10;54.10;;;;;;5018716;28;20034;-78
2023/03/28 07:59:30;;;;;;;5.10;1.30;;;11.10;54.90;;;;;;5018505;28;20026;-78
2023/03/28 08:01:56;;;;;;;1.77;1.27;;;11.30;53.90;;;;;;5018078;28;20105;-79
2023/03/28 08:04:21;;;;;;;6.00;1.33;;;11.40;53.00;;;;;;5004529;28;20037;-78
2023/03/28 08:06:47;;;;;;;1.50;0.90;;;11.40;53.50;;;;;;4998666;28;20414;-78
2023/03/28 08:09:15;;;;;;;3.28;1.00;;;11.20;54.10;;;;;;4998807;28;20023;-78
2023/03/28 08:11:42;;;;;;;4.25;1.23;;;10.70;55.40;;;;;;5011874;28;20101;-78
2023/03/28 08:14:11;;;;;;;3.28;1.40;;;10.50;55.90;;;;;;5015993;28;20059;-79
2023/03/28 08:16:37;;;;;;;10.07;2.10;;;10.50;55.80;;;;;;4980923;28;20081;-78
2023/03/28 08:19:03;;;;;;;3.17;1.80;;;10.60;56.10;;;;;;4998709;28;20028;-78
2023/03/28 08:21:34;;;;;;;1.83;1.35;;;10.70;55.90;;;;;;4998375;28;20018;-78
2023/03/28 08:24:00;;;;;;;2.15;1.50;;;10.60;55.30;;;;;;4998548;28;20571;-78
2023/03/28 08:26:27;;;;;;;2.45;1.40;;;10.70;55.00;;;;;;4998390;28;20077;-78
2023/03/28 08:28:53;;;;;;;2.30;1.42;;;10.80;54.90;;;;;;4981161;28;20022;-78
2023/03/28 08:31:22;;;;;;;1.90;1.10;;;10.80;54.30;;;;;;5015460;28;20030;-78
2023/03/28 08:33:51;;;;;;;1.58;0.85;;;10.50;53.30;;;;;;4989817;28;20038;-78
2023/03/28 08:36:18;;;;;;;1.17;1.08;;;10.50;54.60;;;;;;4963563;28;20109;-78
2023/03/28 08:38:45;;;;;;;2.72;1.20;;;10.70;54.60;;;;;;4978780;28;20030;-78
2023/03/28 08:41:39;;;;;;;4.18;1.50;;;10.90;53.70;;;;;;4987977;28;20397;-79
2023/03/28 08:44:19;;;;;;;3.25;1.20;;;11.70;51.00;;;;;;4998097;28;20138;-78
2023/03/28 08:46:53;;;;;;;2.10;0.90;;;12.30;51.10;;;;;;4982574;28;20035;-79
2023/03/28 08:49:19;;;;;;;2.03;1.13;;;12.40;50.30;;;;;;4978667;28;20046;-78
2023/03/28 08:52:04;;;;;;;1.83;0.90;;;12.70;49.60;;;;;;4978385;28;20055;-79
2023/03/28 08:54:43;;;;;;;3.58;1.13;;;12.90;48.20;;;;;;4961231;28;20086;-78
2023/03/28 08:57:19;;;;;;;1.58;0.98;;;12.80;46.80;;;;;;4989106;28;20026;-78
2023/03/28 09:00:09;;;;;;;2.88;1.02;;;12.80;46.30;;;;;;4978434;28;20560;-78
2023/03/28 09:02:34;;;;;;;1.23;0.75;;;12.80;47.50;;;;;;4983569;28;20033;-79
2023/03/28 09:05:01;;;;;;;9.15;1.77;;;11.70;47.90;;;;;;4997636;28;20090;-79
2023/03/28 09:07:45;;;;;;;4.30;1.52;;;11.50;48.80;;;;;;4995096;28;20129;-79
2023/03/28 09:10:29;;;;;;;4.65;1.70;;;11.70;49.80;;;;;;4979230;28;20033;-79
2023/03/28 09:13:16;;;;;;;2.90;1.40;;;11.40;50.20;;;;;;4966337;28;20035;-79
2023/03/28 09:16:09;;;;;;;2.45;1.20;;;11.50;50.10;;;;;;4959747;28;20142;-79
2023/03/28 09:19:19;;;;;;;1.95;1.15;;;12.00;49.30;;;;;;4978806;28;20390;-79
2023/03/28 09:21:59;;;;;;;;;;;12.90;47.90;;;;;;4910695;28;20106;-78
2023/03/28 09:24:36;;;;;;;4.70;1.20;;;13.00;45.90;;;;;;4976504;28;19910;-79
2023/03/28 09:27:12;;;;;;;3.08;1.20;;;12.80;46.50;;;;;;4977790;28;20031;-78
2023/03/28 09:29:41;;;;;;;2.15;1.10;;;12.50;47.00;;;;;;4977911;28;20089;-78
2023/03/28 09:32:28;;;;;;;3.20;1.42;;;12.30;48.00;;;;;;4994256;28;20042;-78
2023/03/28 09:34:54;;;;;;;5.40;1.35;;;11.70;47.00;;;;;;5016788;28;20379;-79
2023/03/28 09:37:41;;;;;;;1.90;1.27;;;12.50;47.60;;;;;;5008781;28;20038;-79
2023/03/28 09:40:24;;;;;;;5.30;1.60;;;13.20;45.80;;;;;;4982687;28;20024;-78
2023/03/28 09:42:59;;;;;;;1.92;0.70;;;12.80;44.50;;;;;;4997033;28;20030;-79
2023/03/28 09:45:49;;;;;;;2.38;1.27;;;13.10;44.30;;;;;;4996928;28;20389;-79
2023/03/28 09:48:22;;;;;;;4.87;1.47;;;12.80;43.20;;;;;;5008402;28;20029;-78
2023/03/28 09:50:49;;;;;;;2.45;1.35;;;13.60;42.40;;;;;;4998848;28;20046;-79
2023/03/28 09:53:41;;;;;;;2.33;1.13;;;14.00;42.80;;;;;;5016435;28;20180;-78
2023/03/28 09:56:17;;;;;;;2.13;1.40;;;14.20;41.40;;;;;;4995347;28;20042;-79
2023/03/28 09:59:04;;;;;;;2.05;0.90;;;15.00;38.80;;;;;;4996815;28;20037;-79
2023/03/28 10:01:30;;;;;;;1.63;0.82;;;14.60;40.10;;;;;;5006385;28;20499;-79
2023/03/28 10:03:56;;;;;;;5.80;1.90;;;14.20;40.30;;;;;;5016378;28;20046;-78
2023/03/28 10:06:29;;;;;;;3.60;1.13;;;14.50;40.60;;;;;;5016129;28;20523;-79
2023/03/28 10:09:13;;;;;;;3.25;1.63;;;15.30;40.70;;;;;;5016230;28;20030;-78
2023/03/28 10:11:50;;;;;;;1.52;1.00;;;15.20;39.30;;;;;;5013798;28;20444;-78
2023/03/28 10:14:41;;;;;;;4.32;1.35;;;14.50;41.10;;;;;;5016116;28;20025;-79
2023/03/28 10:17:41;;;;;;;3.08;1.08;;;14.50;42.70;;;;;;5011067;28;20010;-79
2023/03/28 10:20:15;;;;;;;;;;;14.80;42.50;;;;;;4992973;28;20037;-78
2023/03/28 10:22:45;;;;;;;4.55;1.20;;;14.70;42.20;;;;;;5016007;28;20003;-78
2023/03/28 10:25:22;;;;;;;;;;;14.60;42.00;;;;;;5016320;28;20084;-78
2023/03/28 10:27:51;;;;;;;3.83;1.15;;;14.20;43.60;;;;;;5014969;28;19920;-79
2023/03/28 10:30:26;;;;;;;2.00;1.10;;;14.40;43.60;;;;;;5015785;28;20041;-79
2023/03/28 10:33:14;;;;;;;3.10;0.80;;;14.40;42.80;;;;;;5015947;28;20068;-79
2023/03/28 10:35:46;;;;;;;3.67;1.20;;;13.90;43.50;;;;;;5006705;28;20038;-79
2023/03/28 10:38:15;;;;;;;3.85;1.20;;;14.00;44.00;;;;;;4996539;28;20076;-79
2023/03/28 10:40:41;;;;;;;1.80;1.02;;;13.70;44.00;;;;;;4997298;28;20047;-79
2023/03/28 10:43:14;;;;;;;2.35;1.17;;;13.70;43.50;;;;;;4996181;28;20138;-79
2023/03/28 10:45:43;;;;;;;3.63;1.48;;;13.80;43.30;;;;;;4996255;28;20109;-79
2023/03/28 10:48:16;;;;;;;1.73;1.20;;;13.70;43.60;;;;;;4996113;28;20022;-79
2023/03/28 10:50:46;;;;;;;2.03;1.42;;;13.50;44.00;;;;;;4996188;28;20034;-78
2023/03/28 10:53:17;;;;;;;3.50;1.60;;;13.60;44.40;;;;;;4978363;28;20070;-79
2023/03/28 10:56:14;;;;;;;5.90;1.13;;;13.30;45.40;;;;;;4996356;28;20409;-79
2023/03/28 10:59:00;;;;;;;4.75;1.25;;;13.20;45.90;;;;;;4999944;28;20017;-79
2023/03/28 11:01:39;;;;;;;2.58;1.30;;;13.30;47.40;;;;;;4978730;28;20062;-78
2023/03/28 11:04:31;;;;;;;9.20;1.30;;;13.20;46.20;;;;;;4998342;28;20026;-78
2023/03/28 11:07:19;;;;;;;4.30;1.42;;;13.50;44.90;;;;;;4995820;28;20566;-78
2023/03/28 11:09:51;;;;;;;4.63;1.80;;;13.70;45.10;;;;;;4996036;28;20031;-78
2023/03/28 11:12:35;;;;;;;2.90;1.50;;;13.80;45.80;;;;;;5013840;28;20395;-78
2023/03/28 11:15:06;;;;;;;3.13;1.52;;;13.40;45.30;;;;;;4998139;28;20957;-78
2023/03/28 11:18:07;;;;;;;2.58;1.50;;;13.60;45.70;;;;;;5014216;28;20084;-79
2023/03/28 11:20:57;;;;;;;2.03;1.33;;;13.60;46.20;;;;;;4976412;28;20446;-78
2023/03/28 11:23:34;;;;;;;1.95;1.20;;;13.20;47.20;;;;;;5012249;28;20388;-78
2023/03/28 11:26:08;;;;;;;1.95;1.42;;;13.30;47.70;;;;;;5008597;28;20469;-78
2023/03/28 11:28:45;;;;;;;4.07;1.88;;;13.20;47.70;;;;;;4995857;28;20058;-79
2023/03/28 11:31:17;;;;;;;1.35;1.02;;;12.90;48.40;;;;;;4995788;28;20050;-78
2023/03/28 11:34:12;;;;;;;1.35;0.90;;;12.80;48.30;;;;;;5005843;28;20037;-79
2023/03/28 11:36:40;;;;;;;3.85;1.55;;;12.60;49.80;;;;;;4996646;28;20022;-79
2023/03/28 11:39:21;;;;;;;3.53;1.50;;;12.60;49.60;;;;;;5019027;28;20030;-78
2023/03/28 11:41:49;;;;;;;5.65;1.42;;;12.30;51.40;;;;;;5018783;28;20026;-78
2023/03/28 11:44:27;;;;;;;4.93;1.75;;;12.30;51.00;;;;;;5008790;28;20022;-78
2023/03/28 11:47:21;;;;;;;3.72;1.77;;;12.30;50.50;;;;;;4999286;28;20029;-79
2023/03/28 11:50:27;;;;;;;4.28;2.10;;;12.10;49.90;;;;;;4981677;28;20033;-79
2023/03/28 11:53:23;;;;;;;2.30;1.23;;;12.30;53.10;;;;;;4998895;28;20386;-79
2023/03/28 11:56:33;;;;;;;2.58;1.20;;;12.40;52.70;;;;;;4999047;28;20023;-78
2023/03/28 11:59:06;;;;;;;5.95;1.67;;;12.80;51.80;;;;;;4992024;28;20034;-78
2023/03/28 12:01:36;;;;;;;3.60;2.00;;;12.80;51.70;;;;;;4981022;28;20030;-78
2023/03/28 12:04:30;;;;;;;3.63;1.58;;;12.90;49.70;;;;;;4993135;28;20031;-79
2023/03/28 12:06:56;;;;;;;1.67;1.10;;;13.10;50.30;;;;;;4981289;28;20045;-79
2023/03/28 12:09:32;;;;;;;2.65;1.42;;;13.30;49.90;;;;;;4998742;28;20519;-78
2023/03/28 12:12:15;;;;;;;2.88;1.60;;;13.70;49.50;;;;;;4995304;28;20030;-79
2023/03/28 12:14:53;;;;;;;3.40;1.17;;;13.60;48.20;;;;;;4998751;28;20545;-78
2023/03/28 12:17:27;;;;;;;4.00;1.67;;;13.70;49.40;;;;;;4998325;28;20026;-79
2023/03/28 12:19:53;;;;;;;4.88;1.88;;;13.90;47.70;;;;;;4998655;28;20025;-78
2023/03/28 12:22:25;;;;;;;4.50;1.65;;;14.00;47.40;;;;;;5006712;28;20026;-78
2023/03/28 12:25:09;;;;;;;4.32;1.70;;;13.80;46.80;;;;;;5018117;28;20029;-78
2023/03/28 12:27:45;;;;;;;2.78;1.42;;;13.70;48.40;;;;;;5016383;28;20100;-79
2023/03/28 12:30:29;;;;;;;2.72;1.35;;;13.50;47.70;;;;;;4980736;28;20026;-78
2023/03/28 12:33:00;;;;;;;2.47;0.93;;;13.50;48.90;;;;;;5005146;28;20485;-79
2023/03/28 12:35:44;;;;;;;2.72;1.17;;;13.60;50.80;;;;;;5006332;28;20105;-78
2023/03/28 12:38:33;;;;;;;7.10;1.48;;;14.00;49.70;;;;;;4998244;28;20050;-78
2023/03/28 12:41:01;;;;;;;3.65;1.60;;;14.20;47.60;;;;;;5004622;28;20042;-79
2023/03/28 12:43:54;;;;;;;5.57;1.50;;;14.20;47.70;;;;;;5017801;28;20076;-79
2023/03/28 12:46:25;;;;;;;3.67;1.48;;;14.30;47.90;;;;;;5000022;28;20026;-79
2023/03/28 12:49:19;;;;;;;4.60;1.80;;;14.50;47.20;;;;;;5000165;28;20520;-79
2023/03/28 12:51:52;;;;;;;3.00;1.77;;;14.50;48.30;;;;;;4980705;28;20038;-79
2023/03/28 12:54:27;;;;;;;5.90;1.50;;;14.40;47.50;;;;;;4997868;28;20117;-79
2023/03/28 12:57:00;;;;;;;2.72;1.40;;;14.30;48.20;;;;;;4998226;28;20027;-79
2023/03/28 12:59:38;;;;;;;2.65;1.40;;;14.10;48.30;;;;;;4997777;28;20105;-78
2023/03/28 13:02:41;;;;;;;5.72;1.42;;;14.30;50.20;;;;;;4997668;28;20038;-79
2023/03/28 13:05:19;;;;;;;3.92;1.63;;;14.30;51.10;;;;;;5011884;28;20029;-78
2023/03/28 13:08:15;;;;;;;2.42;1.50;;;14.40;49.60;;;;;;4999779;28;20048;-79
2023/03/28 13:11:02;;;;;;;6.00;1.45;;;14.40;50.50;;;;;;4984166;28;20164;-78
2023/03/28 13:14:09;;;;;;;1.85;1.10;;;14.60;50.10;;;;;;4997410;28;20136;-79
2023/03/28 13:16:57;;;;;;;3.50;1.50;;;14.70;51.60;;;;;;4977200;28;20501;-79
2023/03/28 13:20:09;;;;;;;1.92;1.40;;;14.70;50.70;;;;;;4997587;28;20473;-78
2023/03/28 13:22:56;;;;;;;6.85;1.33;;;14.80;49.90;;;;;;4941213;29;20031;-79
2023/03/28 13:25:26;;;;;;;2.28;1.30;;;14.90;50.00;;;;;;4999292;28;20036;-79
2023/03/28 13:27:55;;;;;;;3.20;1.15;;;15.10;50.00;;;;;;4981300;28;20037;-78
2023/03/28 13:30:25;;;;;;;3.13;1.30;;;14.90;49.90;;;;;;4979957;28;20038;-79
2023/03/28 13:32:56;;;;;;;4.00;1.10;;;15.20;50.00;;;;;;5000220;28;20133;-79
2023/03/28 13:35:59;;;;;;;2.80;1.38;;;15.30;50.30;;;;;;5015927;28;20164;-79
2023/03/28 13:38:27;;;;;;;1.83;1.13;;;15.30;50.80;;;;;;5017015;28;20476;-79
2023/03/28 13:41:05;;;;;;;1.80;1.10;;;15.40;49.80;;;;;;5015729;28;20025;-79
2023/03/28 13:43:57;;;;;;;4.63;1.40;;;15.50;49.60;;;;;;5016716;28;20110;-79
2023/03/28 13:46:46;;;;;;;2.88;1.23;;;15.50;49.90;;;;;;5010756;28;20023;-79
2023/03/28 13:49:21;;;;;;;2.85;1.63;;;15.50;50.30;;;;;;4996968;28;20057;-79
2023/03/28 13:52:02;;;;;;;3.58;1.00;;;15.60;50.30;;;;;;4996686;28;20034;-79
2023/03/28 13:54:28;;;;;;;1.20;0.90;;;15.60;50.00;;;;;;4996867;28;20523;-79
2023/03/28 13:57:05;;;;;;;2.17;1.30;;;15.70;49.10;;;;;;5003553;28;20065;-78
2023/03/28 13:59:50;;;;;;;2.20;1.23;;;15.60;50.30;;;;;;5016317;28;20026;-78
2023/03/28 14:02:21;;;;;;;2.50;1.30;;;15.60;50.10;;;;;;4998794;28;20040;-78
2023/03/28 14:04:55;;;;;;;2.22;1.73;;;15.50;50.20;;;;;;5016369;28;20018;-79
2023/03/28 14:07:28;;;;;;;3.22;1.40;;;15.60;49.90;;;;;;5002020;28;20581;-79
2023/03/28 14:09:55;;;;;;;2.30;1.25;;;15.70;50.20;;;;;;4996566;28;20146;-79
2023/03/28 14:12:22;;;;;;;4.28;1.70;;;15.80;51.40;;;;;;4981398;28;20046;-79
2023/03/28 14:14:52;;;;;;;3.38;1.50;;;15.70;51.10;;;;;;5013324;28;20076;-78
2023/03/28 14:17:28;;;;;;;7.18;1.70;;;15.70;50.70;;;;;;5009159;28;20034;-78
2023/03/28 14:19:56;;;;;;;3.75;1.30;;;15.70;50.60;;;;;;4978875;28;20023;-78
2023/03/28 14:22:27;;;;;;;1.83;1.13;;;15.70;51.20;;;;;;4996541;28;20038;-79
2023/03/28 14:24:56;;;;;;;5.05;1.30;;;15.80;52.00;;;;;;4979121;28;20029;-78
2023/03/28 14:27:47;;;;;;;4.63;1.80;;;15.70;51.80;;;;;;4996393;28;20026;-78
2023/03/28 14:30:18;;;;;;;;;;;15.60;51.70;;;;;;4996550;28;20069;-79
2023/03/28 14:32:58;;;;;;;3.35;1.83;;;15.60;52.30;;;;;;5005585;28;19917;-79
2023/03/28 14:35:34;;;;;;;;;;;15.60;52.60;;;;;;5016427;28;20034;-79
2023/03/28 14:38:05;;;;;;;2.33;1.20;;;15.70;52.20;;;;;;4995654;28;19917;-79
2023/03/28 14:40:32;;;;;;;2.38;1.33;;;15.70;52.40;;;;;;5000390;28;20014;-79
2023/03/28 14:43:04;;;;;;;2.55;0.77;;;15.70;52.50;;;;;;5015963;28;20041;-79
2023/03/28 14:45:35;;;;;;;2.08;0.95;;;15.60;52.70;;;;;;4996450;28;20034;-79
2023/03/28 14:48:03;;;;;;;1.70;1.10;;;15.70;53.20;;;;;;4978774;28;20045;-79
2023/03/28 14:50:36;;;;;;;3.38;1.05;;;15.80;52.60;;;;;;4978696;28;20049;-79
2023/03/28 14:53:26;;;;;;;1.65;0.88;;;16.00;53.50;;;;;;4998535;28;20441;-79
2023/03/28 14:56:15;;;;;;;3.28;1.02;;;16.00;53.20;;;;;;5015081;28;20516;-79
2023/03/28 14:58:44;;;;;;;1.95;0.93;;;16.00;52.90;;;;;;5015735;28;20107;-78
2023/03/28 15:01:21;;;;;;;2.60;0.93;;;16.00;53.40;;;;;;5006124;28;20109;-79
2023/03/28 15:04:05;;;;;;;1.67;1.08;;;16.10;53.90;;;;;;5013140;28;20052;-78
2023/03/28 15:06:33;;;;;;;4.03;1.63;;;16.20;53.70;;;;;;5015770;28;20109;-78
2023/03/28 15:09:06;;;;;;;3.30;1.23;;;16.30;53.10;;;;;;5002839;28;20030;-79
2023/03/28 15:11:35;;;;;;;1.88;1.08;;;16.30;52.80;;;;;;5006614;28;20385;-79
2023/03/28 15:14:10;;;;;;;3.38;0.80;;;16.40;53.10;;;;;;4982270;28;20034;-79
2023/03/28 15:16:39;;;;;;;2.50;1.05;;;16.40;52.80;;;;;;4999683;28;20053;-79
2023/03/28 15:19:15;;;;;;;2.10;0.82;;;16.50;54.00;;;;;;4997707;28;20026;-79
2023/03/28 15:21:46;;;;;;;2.28;1.10;;;16.50;52.90;;;;;;4999818;28;20023;-79
2023/03/28 15:24:16;;;;;;;1.98;1.15;;;16.50;53.00;;;;;;5000768;28;20734;-79
2023/03/28 15:26:49;;;;;;;0.95;0.55;;;16.50;53.60;;;;;;5017357;28;20370;-79
2023/03/28 15:29:18;;;;;;;1.40;0.77;;;16.50;53.30;;;;;;5001069;28;20057;-78
2023/03/28 15:31:44;;;;;;;3.60;0.93;;;16.30;53.20;;;;;;5001782;28;20424;-76
2023/03/28 15:34:17;;;;;;;3.90;1.40;;;16.40;53.50;;;;;;5016424;28;20497;-76
2023/03/28 15:36:54;;;;;;;2.92;0.77;;;16.40;53.90;;;;;;5000612;28;20620;-76
2023/03/28 15:39:30;;;;;;;1.65;0.90;;;16.30;53.60;;;;;;4999399;28;20026;-76
2023/03/28 15:42:17;;;;;;;3.25;1.10;;;16.10;52.90;;;;;;5006304;28;20015;-76
2023/03/28 15:45:04;;;;;;;2.03;0.98;;;16.00;53.50;;;;;;4999267;28;20416;-76
2023/03/28 15:47:34;;;;;;;1.40;0.82;;;16.00;53.40;;;;;;4981686;28;20030;-76
2023/03/28 15:50:20;;;;;;;1.23;0.47;;;16.00;51.50;;;;;;4981700;28;20031;-78
2023/03/28 15:52:45;;;;;;;1.85;0.60;;;16.00;50.40;;;;;;4999239;28;20866;-78
2023/03/28 15:55:19;;;;;;;1.13;0.60;;;16.00;50.60;;;;;;4988996;28;20034;-77
2023/03/28 15:57:46;;;;;;;4.05;0.93;;;16.00;51.40;;;;;;5017490;28;20032;-78
2023/03/28 16:00:52;;;;;;;1.23;0.55;;;15.90;51.90;;;;;;4981359;28;20041;-81
2023/03/28 16:03:31;;;;;;;2.55;0.93;;;15.80;51.80;;;;;;5005002;28;20033;-78
2023/03/28 16:06:14;;;;;;;2.15;0.73;;;15.90;52.50;;;;;;4980210;28;20049;-78
2023/03/28 16:08:43;;;;;;;2.22;0.60;;;16.00;52.80;;;;;;4998925;28;20041;-79
2023/03/28 16:11:22;;;;;;;2.80;1.25;;;16.10;52.30;;;;;;5007673;28;20036;-78
2023/03/28 16:13:48;;;;;;;4.53;1.00;;;16.20;51.80;;;;;;5009541;28;20030;-78
2023/03/28 16:16:26;;;;;;;1.38;0.65;;;16.20;52.10;;;;;;4981196;28;20149;-78
2023/03/28 16:18:52;;;;;;;3.00;0.85;;;16.30;52.60;;;;;;4998644;28;20045;-79
2023/03/28 16:21:18;;;;;;;2.95;0.82;;;16.30;52.80;;;;;;4998616;28;20030;-78
2023/03/28 16:23:44;;;;;;;3.60;0.90;;;16.30;52.30;;;;;;4985729;28;20112;-79
2023/03/28 16:26:11;;;;;;;1.13;0.90;;;16.20;52.30;;;;;;5008781;28;20492;-79
2023/03/28 16:28:36;;;;;;;2.33;0.70;;;16.20;52.50;;;;;;5006504;28;20034;-78
2023/03/28 16:31:03;;;;;;;2.25;0.73;;;16.20;52.60;;;;;;5005931;28;20672;-78
2023/03/28 16:33:29;;;;;;;2.28;1.15;;;16.20;53.50;;;;;;5008034;28;20031;-79
2023/03/28 16:35:55;;;;;;;2.15;0.80;;;16.30;52.70;;;;;;5006627;28;20038;-79
2023/03/28 16:38:21;;;;;;;2.13;1.00;;;16.20;52.90;;;;;;5007973;28;20029;-79
2023/03/28 16:40:47;;;;;;;1.67;0.85;;;16.20;53.00;;;;;;5006838;28;20025;-79
2023/03/28 16:43:14;;;;;;;3.47;0.80;;;16.30;53.20;;;;;;5007478;28;20042;-79
2023/03/28 16:45:40;;;;;;;3.22;1.35;;;16.30;53.40;;;;;;5005715;28;20011;-79
2023/03/28 16:48:06;;;;;;;3.42;1.27;;;16.30;53.20;;;;;;5006656;28;20037;-79
2023/03/28 16:50:32;;;;;;;4.47;1.10;;;16.30;53.40;;;;;;4990875;28;20028;-79
2023/03/28 16:52:58;;;;;;;2.78;1.05;;;16.20;53.50;;;;;;5006015;28;20113;-79
2023/03/28 16:55:23;;;;;;;2.60;0.90;;;16.10;53.50;;;;;;5007440;28;20018;-78
2023/03/28 16:57:49;;;;;;;2.72;0.88;;;16.00;54.00;;;;;;5006989;28;20091;-78
2023/03/28 17:00:16;;;;;;;3.38;1.10;;;15.90;54.90;;;;;;5008234;28;20086;-79
2023/03/28 17:02:46;;;;;;;3.05;1.25;;;15.80;55.00;;;;;;5004796;28;20034;-79
2023/03/28 17:05:12;;;;;;;3.85;1.75;;;15.70;54.90;;;;;;4993006;28;20049;-78
2023/03/28 17:07:38;;;;;;;5.93;1.02;;;15.60;55.70;;;;;;5007840;28;20041;-79
2023/03/28 17:10:04;;;;;;;2.80;1.10;;;15.50;56.10;;;;;;5011906;28;20089;-78
2023/03/28 17:12:30;;;;;;;2.40;1.13;;;15.50;56.60;;;;;;5017034;28;20038;-78
2023/03/28 17:14:56;;;;;;;2.90;0.90;;;15.60;56.40;;;;;;4990607;28;20481;-79
2023/03/28 17:17:22;;;;;;;2.38;0.80;;;15.50;56.40;;;;;;5009361;28;20034;-78
2023/03/28 17:19:48;;;;;;;3.92;1.40;;;15.50;56.50;;;;;;4999475;28;20030;-78
2023/03/28 17:22:14;;;;;;;3.50;1.23;;;15.40;57.20;;;;;;4994736;28;20084;-77
2023/03/28 17:24:39;;;;;;;2.38;1.15;;;15.50;57.40;;;;;;5006521;28;20022;-78
2023/03/28 17:27:05;;;;;;;1.80;1.10;;;15.50;57.20;;;;;;5004955;28;20046;-78
2023/03/28 17:29:31;;;;;;;4.13;1.30;;;15.40;57.20;;;;;;4986613;28;20040;-76
2023/03/28 17:31:57;;;;;;;3.25;1.38;;;15.40;57.30;;;;;;4996329;28;20060;-78
2023/03/28 17:34:22;;;;;;;3.15;1.15;;;15.30;57.70;;;;;;5017473;28;20026;-75
2023/03/28 17:36:50;;;;;;;5.65;1.50;;;15.30;57.90;;;;;;4987152;28;20054;-76
2023/03/28 17:39:16;;;;;;;1.85;1.10;;;15.30;58.10;;;;;;4980132;28;20022;-76
2023/03/28 17:41:41;;;;;;;4.82;2.08;;;15.30;58.20;;;;;;5003001;28;20080;-74
2023/03/28 17:44:08;;;;;;;3.92;1.38;;;15.20;58.20;;;;;;5004387;28;20117;-75
2023/03/28 17:46:33;;;;;;;3.90;1.30;;;15.20;58.40;;;;;;4996362;28;20022;-77
2023/03/28 17:48:59;;;;;;;3.97;1.40;;;15.20;58.90;;;;;;4997244;28;20026;-76
2023/03/28 17:51:25;;;;;;;6.10;1.67;;;15.10;59.10;;;;;;4996832;28;20041;-76